Clara City, MN (56222)

4:37 AM CST on December 07, 2016 (GMT -0600)
MNDOT | | Change Station

Elev 1053 ft 44.95 °N, 95.41 °W | Updated 32 minutes ago

Overcast
Overcast
13.0 °F
Feels Like -4 °F
N
17.0
Wind Variable Wind from West
Gusts 0.0 mph

Today
High -- | Low -- °F
--% Chance of Precip.
Yesterday
High -- | Low -- °F
Precip. -- in
Pressure 29.98 in
Visibility 10.0 miles
Clouds Overcast 2600 ft
Windchill -4 °F
Dew Point 7.0 °F
Humidity 75%
Rainfall in
Snow Depth Not available.
7:46 AM 4:40 PM
Waxing Crescent, 51% visible
METAR KBDH 071035Z AUTO 28019G23KT 10SM OVC026 M09/M12 A2998 RMK AO2
Pressure 29.98 in
Visibility 10.0 miles
Clouds Overcast 2600 ft
Windchill -4 °F
Dew Point 7.0 °F
Humidity 75%
Rainfall in
Snow Depth Not available.
7:46 AM 4:40 PM
Waxing Crescent, 51% visible
METAR KBDH 071035Z AUTO 28019G23KT 10SM OVC026 M09/M12 A2998 RMK AO2

10-Day Weather Forecast

Almanac

Astronomy

Dec. 07, 2016 Rise Set
Actual Time
Civil Twilight
Nautical Twilight
Astronomical Twilight
Moon
Length of Visible Light
Length of Day
Tomorrow will be .
, % of the Moon is Illuminated

Today's Extremes

State Highs State Lows

Community

WunderPhotos

Upload Photos

1,956,111 photos uploaded!

WunderBlog® & News

Nearby

Air Quality

  Air Quality AQ Index Pollutant
Not available.

Snow Depth

Station Depth Elevation

Earthquake Activity

City Distance Mag. Time & Date
Minimum magnitude displayed is 2.5.

Coastal Water Temperatures

Place Temperature

Stations

Nearby Weather Stations

Station Location Temp. Windchill Dew Point Humidity Wind Precip. Elev Updated Type
                   

Watches & Warnings

There are currently no watches in effect.